sensor_id;sensor_type;location;lat;lon;timestamp;P1;durP1;ratioP1;P2;durP2;ratioP2
47772;SDS011;33534;51.028;13.716;2023-02-01T00:02:18;14.52;;;5.25;;
47772;SDS011;33534;51.028;13.716;2023-02-01T00:04:44;13.07;;;4.82;;
47772;SDS011;33534;51.028;13.716;2023-02-01T00:07:11;14.35;;;6.40;;
47772;SDS011;33534;51.028;13.716;2023-02-01T00:09:39;13.65;;;4.55;;
47772;SDS011;33534;51.028;13.716;2023-02-01T00:12:05;10.57;;;5.40;;
47772;SDS011;33534;51.028;13.716;2023-02-01T00:14:31;16.27;;;8.00;;
47772;SDS011;33534;51.028;13.716;2023-02-01T00:17:03;17.00;;;5.32;;
47772;SDS011;33534;51.028;13.716;2023-02-01T00:19:29;12.18;;;4.68;;
47772;SDS011;33534;51.028;13.716;2023-02-01T00:21:55;21.00;;;4.93;;
47772;SDS011;33534;51.028;13.716;2023-02-01T00:24:21;11.55;;;5.35;;
47772;SDS011;33534;51.028;13.716;2023-02-01T00:26:47;12.60;;;4.18;;
47772;SDS011;33534;51.028;13.716;2023-02-01T00:29:17;15.10;;;6.90;;
47772;SDS011;33534;51.028;13.716;2023-02-01T00:31:44;12.90;;;4.60;;
47772;SDS011;33534;51.028;13.716;2023-02-01T00:34:14;13.70;;;4.88;;
47772;SDS011;33534;51.028;13.716;2023-02-01T00:36:40;11.98;;;4.15;;
47772;SDS011;33534;51.028;13.716;2023-02-01T00:39:07;16.60;;;6.28;;
47772;SDS011;33534;51.028;13.716;2023-02-01T00:41:33;14.18;;;5.85;;
47772;SDS011;33534;51.028;13.716;2023-02-01T00:43:59;16.45;;;4.40;;
47772;SDS011;33534;51.028;13.716;2023-02-01T00:46:26;11.93;;;4.97;;
47772;SDS011;33534;51.028;13.716;2023-02-01T00:48:52;10.35;;;4.90;;
47772;SDS011;33534;51.028;13.716;2023-02-01T00:51:20;13.07;;;5.07;;
47772;SDS011;33534;51.028;13.716;2023-02-01T00:53:47;11.88;;;4.45;;
47772;SDS011;33534;51.028;13.716;2023-02-01T00:56:13;15.18;;;5.00;;
47772;SDS011;33534;51.028;13.716;2023-02-01T00:58:39;10.07;;;4.65;;
47772;SDS011;33534;51.028;13.716;2023-02-01T01:03:32;15.55;;;5.45;;
47772;SDS011;33534;51.028;13.716;2023-02-01T01:05:59;15.25;;;3.95;;
47772;SDS011;33534;51.028;13.716;2023-02-01T01:08:25;9.38;;;4.82;;
47772;SDS011;33534;51.028;13.716;2023-02-01T01:10:51;16.33;;;4.13;;
47772;SDS011;33534;51.028;13.716;2023-02-01T01:13:18;16.70;;;4.30;;
47772;SDS011;33534;51.028;13.716;2023-02-01T01:15:44;14.93;;;5.00;;
47772;SDS011;33534;51.028;13.716;2023-02-01T01:18:10;10.02;;;4.35;;
47772;SDS011;33534;51.028;13.716;2023-02-01T01:20:37;13.30;;;4.95;;
47772;SDS011;33534;51.028;13.716;2023-02-01T01:23:03;14.93;;;4.00;;
47772;SDS011;33534;51.028;13.716;2023-02-01T01:25:30;15.27;;;4.00;;
47772;SDS011;33534;51.028;13.716;2023-02-01T01:27:56;12.68;;;4.43;;
47772;SDS011;33534;51.028;13.716;2023-02-01T01:30:22;15.00;;;4.28;;
47772;SDS011;33534;51.028;13.716;2023-02-01T01:32:48;10.68;;;3.38;;
47772;SDS011;33534;51.028;13.716;2023-02-01T01:35:14;16.73;;;3.97;;
47772;SDS011;33534;51.028;13.716;2023-02-01T01:37:40;14.73;;;4.40;;
47772;SDS011;33534;51.028;13.716;2023-02-01T01:40:06;12.02;;;4.90;;
47772;SDS011;33534;51.028;13.716;2023-02-01T01:42:39;14.77;;;4.25;;
47772;SDS011;33534;51.028;13.716;2023-02-01T01:47:35;14.45;;;3.28;;
47772;SDS011;33534;51.028;13.716;2023-02-01T01:50:03;11.70;;;3.00;;
47772;SDS011;33534;51.028;13.716;2023-02-01T01:52:29;13.38;;;4.05;;
47772;SDS011;33534;51.028;13.716;2023-02-01T01:54:55;14.75;;;4.30;;
47772;SDS011;33534;51.028;13.716;2023-02-01T01:57:24;14.57;;;3.38;;
47772;SDS011;33534;51.028;13.716;2023-02-01T01:59:57;13.27;;;3.92;;
47772;SDS011;33534;51.028;13.716;2023-02-01T02:02:25;10.63;;;3.28;;
47772;SDS011;33534;51.028;13.716;2023-02-01T02:04:51;14.02;;;4.45;;
47772;SDS011;33534;51.028;13.716;2023-02-01T02:07:17;13.18;;;3.88;;
47772;SDS011;33534;51.028;13.716;2023-02-01T02:09:45;13.32;;;3.53;;
47772;SDS011;33534;51.028;13.716;2023-02-01T02:12:12;16.83;;;4.63;;
47772;SDS011;33534;51.028;13.716;2023-02-01T02:14:38;11.10;;;3.90;;
47772;SDS011;33534;51.028;13.716;2023-02-01T02:30:26;13.35;;;3.33;;
47772;SDS011;33534;51.028;13.716;2023-02-01T02:32:56;13.10;;;3.03;;
47772;SDS011;33534;51.028;13.716;2023-02-01T02:37:59;8.60;;;2.78;;
47772;SDS011;33534;51.028;13.716;2023-02-01T02:48:47;11.63;;;3.22;;
47772;SDS011;33534;51.028;13.716;2023-02-01T02:54:10;18.60;;;3.58;;
47772;SDS011;33534;51.028;13.716;2023-02-01T02:56:56;15.68;;;3.97;;
47772;SDS011;33534;51.028;13.716;2023-02-01T02:59:43;15.05;;;3.28;;
47772;SDS011;33534;51.028;13.716;2023-02-01T03:02:28;11.73;;;3.28;;
47772;SDS011;33534;51.028;13.716;2023-02-01T03:05:14;17.13;;;3.50;;
47772;SDS011;33534;51.028;13.716;2023-02-01T03:10:11;11.27;;;3.47;;
47772;SDS011;33534;51.028;13.716;2023-02-01T03:12:42;12.25;;;3.08;;
47772;SDS011;33534;51.028;13.716;2023-02-01T03:15:21;10.98;;;3.58;;
47772;SDS011;33534;51.028;13.716;2023-02-01T03:17:51;10.70;;;2.80;;
47772;SDS011;33534;51.028;13.716;2023-02-01T03:20:18;10.93;;;2.75;;
47772;SDS011;33534;51.028;13.716;2023-02-01T03:22:44;13.43;;;3.20;;
47772;SDS011;33534;51.028;13.716;2023-02-01T03:25:13;12.80;;;3.42;;
47772;SDS011;33534;51.028;13.716;2023-02-01T03:27:42;14.07;;;3.13;;
47772;SDS011;33534;51.028;13.716;2023-02-01T03:32:42;14.75;;;3.22;;
47772;SDS011;33534;51.028;13.716;2023-02-01T03:35:35;9.77;;;3.00;;
47772;SDS011;33534;51.028;13.716;2023-02-01T03:38:12;10.02;;;3.20;;
47772;SDS011;33534;51.028;13.716;2023-02-01T03:40:39;14.30;;;3.33;;
47772;SDS011;33534;51.028;13.716;2023-02-01T03:43:07;9.82;;;2.53;;
47772;SDS011;33534;51.028;13.716;2023-02-01T03:45:39;11.93;;;3.13;;
47772;SDS011;33534;51.028;13.716;2023-02-01T03:48:07;13.88;;;4.22;;
47772;SDS011;33534;51.028;13.716;2023-02-01T03:50:35;19.92;;;3.22;;
47772;SDS011;33534;51.028;13.716;2023-02-01T03:53:13;12.52;;;3.60;;
47772;SDS011;33534;51.028;13.716;2023-02-01T03:55:40;16.23;;;3.45;;
47772;SDS011;33534;51.028;13.716;2023-02-01T03:58:08;14.10;;;3.30;;
47772;SDS011;33534;51.028;13.716;2023-02-01T04:00:35;16.33;;;3.13;;
47772;SDS011;33534;51.028;13.716;2023-02-01T04:03:01;16.00;;;3.90;;
47772;SDS011;33534;51.028;13.716;2023-02-01T04:05:28;18.73;;;3.55;;
47772;SDS011;33534;51.028;13.716;2023-02-01T04:07:55;10.80;;;2.83;;
47772;SDS011;33534;51.028;13.716;2023-02-01T04:10:21;12.15;;;3.03;;
47772;SDS011;33534;51.028;13.716;2023-02-01T04:12:47;9.20;;;2.55;;
47772;SDS011;33534;51.028;13.716;2023-02-01T04:15:13;7.97;;;2.80;;
47772;SDS011;33534;51.028;13.716;2023-02-01T04:17:39;12.98;;;3.40;;
47772;SDS011;33534;51.028;13.716;2023-02-01T04:20:05;9.48;;;3.47;;
47772;SDS011;33534;51.028;13.716;2023-02-01T04:22:31;15.18;;;3.22;;
47772;SDS011;33534;51.028;13.716;2023-02-01T04:24:57;15.27;;;3.63;;
47772;SDS011;33534;51.028;13.716;2023-02-01T04:27:23;10.15;;;2.30;;
47772;SDS011;33534;51.028;13.716;2023-02-01T04:29:49;11.93;;;2.63;;
47772;SDS011;33534;51.028;13.716;2023-02-01T04:32:16;10.38;;;2.50;;
47772;SDS011;33534;51.028;13.716;2023-02-01T04:34:42;17.80;;;3.65;;
47772;SDS011;33534;51.028;13.716;2023-02-01T04:37:08;12.75;;;3.15;;
47772;SDS011;33534;51.028;13.716;2023-02-01T04:39:34;17.80;;;2.67;;
47772;SDS011;33534;51.028;13.716;2023-02-01T04:42:00;15.13;;;3.35;;
47772;SDS011;33534;51.028;13.716;2023-02-01T04:44:26;15.75;;;3.88;;
47772;SDS011;33534;51.028;13.716;2023-02-01T04:46:52;15.38;;;4.10;;
47772;SDS011;33534;51.028;13.716;2023-02-01T04:49:18;13.02;;;3.42;;
47772;SDS011;33534;51.028;13.716;2023-02-01T04:51:46;11.88;;;3.42;;
47772;SDS011;33534;51.028;13.716;2023-02-01T04:54:12;9.48;;;2.72;;
47772;SDS011;33534;51.028;13.716;2023-02-01T04:56:38;17.05;;;3.03;;
47772;SDS011;33534;51.028;13.716;2023-02-01T04:59:04;13.05;;;2.95;;
47772;SDS011;33534;51.028;13.716;2023-02-01T05:01:30;12.60;;;3.00;;
47772;SDS011;33534;51.028;13.716;2023-02-01T05:03:56;13.10;;;3.38;;
47772;SDS011;33534;51.028;13.716;2023-02-01T05:06:22;16.02;;;3.22;;
47772;SDS011;33534;51.028;13.716;2023-02-01T05:08:49;14.30;;;4.15;;
47772;SDS011;33534;51.028;13.716;2023-02-01T05:11:15;16.63;;;3.72;;
47772;SDS011;33534;51.028;13.716;2023-02-01T05:13:59;19.15;;;3.50;;
47772;SDS011;33534;51.028;13.716;2023-02-01T05:16:25;14.50;;;3.92;;
47772;SDS011;33534;51.028;13.716;2023-02-01T05:18:52;15.05;;;2.67;;
47772;SDS011;33534;51.028;13.716;2023-02-01T05:21:18;16.25;;;3.83;;
47772;SDS011;33534;51.028;13.716;2023-02-01T05:23:44;13.50;;;3.70;;
47772;SDS011;33534;51.028;13.716;2023-02-01T05:26:28;13.45;;;2.88;;
47772;SDS011;33534;51.028;13.716;2023-02-01T05:28:54;18.38;;;3.67;;
47772;SDS011;33534;51.028;13.716;2023-02-01T05:31:20;17.95;;;3.97;;
47772;SDS011;33534;51.028;13.716;2023-02-01T05:33:47;16.20;;;3.70;;
47772;SDS011;33534;51.028;13.716;2023-02-01T05:36:13;12.50;;;3.60;;
47772;SDS011;33534;51.028;13.716;2023-02-01T05:38:39;15.18;;;3.42;;
47772;SDS011;33534;51.028;13.716;2023-02-01T05:41:05;16.75;;;3.75;;
47772;SDS011;33534;51.028;13.716;2023-02-01T05:43:31;17.15;;;3.90;;
47772;SDS011;33534;51.028;13.716;2023-02-01T05:45:57;15.63;;;3.13;;
47772;SDS011;33534;51.028;13.716;2023-02-01T05:48:23;19.90;;;5.05;;
47772;SDS011;33534;51.028;13.716;2023-02-01T05:50:49;21.92;;;4.82;;
47772;SDS011;33534;51.028;13.716;2023-02-01T05:53:15;15.85;;;3.50;;
47772;SDS011;33534;51.028;13.716;2023-02-01T05:55:41;14.82;;;3.30;;
47772;SDS011;33534;51.028;13.716;2023-02-01T05:58:07;18.23;;;4.45;;
47772;SDS011;33534;51.028;13.716;2023-02-01T06:00:33;19.45;;;3.92;;
47772;SDS011;33534;51.028;13.716;2023-02-01T06:02:59;16.30;;;4.70;;
47772;SDS011;33534;51.028;13.716;2023-02-01T06:05:26;19.38;;;4.63;;
47772;SDS011;33534;51.028;13.716;2023-02-01T06:07:52;18.67;;;5.18;;
47772;SDS011;33534;51.028;13.716;2023-02-01T06:10:18;18.90;;;3.95;;
47772;SDS011;33534;51.028;13.716;2023-02-01T06:12:45;12.35;;;3.33;;
47772;SDS011;33534;51.028;13.716;2023-02-01T06:15:11;18.20;;;4.63;;
47772;SDS011;33534;51.028;13.716;2023-02-01T06:17:38;17.45;;;4.05;;
47772;SDS011;33534;51.028;13.716;2023-02-01T06:20:06;11.65;;;3.47;;
47772;SDS011;33534;51.028;13.716;2023-02-01T06:22:32;14.43;;;3.80;;
47772;SDS011;33534;51.028;13.716;2023-02-01T06:25:00;21.50;;;4.00;;
47772;SDS011;33534;51.028;13.716;2023-02-01T06:27:26;14.88;;;3.58;;
47772;SDS011;33534;51.028;13.716;2023-02-01T06:29:53;9.63;;;2.88;;
47772;SDS011;33534;51.028;13.716;2023-02-01T06:32:20;10.13;;;3.22;;
47772;SDS011;33534;51.028;13.716;2023-02-01T06:34:46;14.35;;;3.88;;
47772;SDS011;33534;51.028;13.716;2023-02-01T06:37:12;15.48;;;3.42;;
47772;SDS011;33534;51.028;13.716;2023-02-01T06:39:38;17.38;;;3.80;;
47772;SDS011;33534;51.028;13.716;2023-02-01T06:42:04;10.68;;;3.83;;
47772;SDS011;33534;51.028;13.716;2023-02-01T06:44:30;13.13;;;3.17;;
47772;SDS011;33534;51.028;13.716;2023-02-01T06:46:56;14.82;;;3.72;;
47772;SDS011;33534;51.028;13.716;2023-02-01T06:49:22;12.32;;;2.97;;
47772;SDS011;33534;51.028;13.716;2023-02-01T06:51:48;10.50;;;3.45;;
47772;SDS011;33534;51.028;13.716;2023-02-01T06:54:14;16.25;;;3.70;;
47772;SDS011;33534;51.028;13.716;2023-02-01T06:56:40;16.20;;;3.88;;
47772;SDS011;33534;51.028;13.716;2023-02-01T06:59:07;10.18;;;3.10;;
47772;SDS011;33534;51.028;13.716;2023-02-01T07:01:33;10.32;;;3.03;;
47772;SDS011;33534;51.028;13.716;2023-02-01T07:04:00;12.63;;;3.47;;
47772;SDS011;33534;51.028;13.716;2023-02-01T07:06:26;14.95;;;3.40;;
47772;SDS011;33534;51.028;13.716;2023-02-01T07:08:52;13.27;;;3.58;;
47772;SDS011;33534;51.028;13.716;2023-02-01T07:11:21;12.25;;;3.90;;
47772;SDS011;33534;51.028;13.716;2023-02-01T07:13:47;14.65;;;3.70;;
47772;SDS011;33534;51.028;13.716;2023-02-01T07:16:17;15.07;;;4.00;;
47772;SDS011;33534;51.028;13.716;2023-02-01T07:18:43;15.07;;;3.70;;
47772;SDS011;33534;51.028;13.716;2023-02-01T07:21:10;11.95;;;3.80;;
47772;SDS011;33534;51.028;13.716;2023-02-01T07:23:36;17.13;;;3.72;;
47772;SDS011;33534;51.028;13.716;2023-02-01T07:26:04;16.95;;;4.20;;
47772;SDS011;33534;51.028;13.716;2023-02-01T07:28:31;16.95;;;4.63;;
47772;SDS011;33534;51.028;13.716;2023-02-01T07:33:33;20.50;;;4.88;;
47772;SDS011;33534;51.028;13.716;2023-02-01T07:36:00;15.98;;;4.30;;
47772;SDS011;33534;51.028;13.716;2023-02-01T07:38:26;17.95;;;4.80;;
47772;SDS011;33534;51.028;13.716;2023-02-01T07:40:56;15.07;;;4.07;;
47772;SDS011;33534;51.028;13.716;2023-02-01T07:43:23;18.30;;;4.55;;
47772;SDS011;33534;51.028;13.716;2023-02-01T07:45:52;15.85;;;4.97;;
47772;SDS011;33534;51.028;13.716;2023-02-01T07:48:19;16.80;;;3.22;;
47772;SDS011;33534;51.028;13.716;2023-02-01T07:50:45;15.75;;;4.00;;
47772;SDS011;33534;51.028;13.716;2023-02-01T07:53:11;13.63;;;4.13;;
47772;SDS011;33534;51.028;13.716;2023-02-01T07:55:37;15.77;;;4.72;;
47772;SDS011;33534;51.028;13.716;2023-02-01T07:58:03;15.68;;;4.32;;
47772;SDS011;33534;51.028;13.716;2023-02-01T08:00:29;18.65;;;4.85;;
47772;SDS011;33534;51.028;13.716;2023-02-01T08:03:14;11.15;;;3.58;;
47772;SDS011;33534;51.028;13.716;2023-02-01T08:05:40;13.85;;;3.80;;
47772;SDS011;33534;51.028;13.716;2023-02-01T08:08:06;19.27;;;4.70;;
47772;SDS011;33534;51.028;13.716;2023-02-01T08:10:33;14.70;;;4.20;;
47772;SDS011;33534;51.028;13.716;2023-02-01T08:13:00;12.50;;;3.55;;
47772;SDS011;33534;51.028;13.716;2023-02-01T08:15:26;20.20;;;4.72;;
47772;SDS011;33534;51.028;13.716;2023-02-01T08:17:53;20.52;;;4.32;;
47772;SDS011;33534;51.028;13.716;2023-02-01T08:20:23;22.70;;;4.67;;
47772;SDS011;33534;51.028;13.716;2023-02-01T08:22:50;14.50;;;3.65;;
47772;SDS011;33534;51.028;13.716;2023-02-01T08:25:17;16.42;;;4.28;;
47772;SDS011;33534;51.028;13.716;2023-02-01T08:27:43;14.38;;;4.57;;
47772;SDS011;33534;51.028;13.716;2023-02-01T08:30:09;15.65;;;4.10;;
47772;SDS011;33534;51.028;13.716;2023-02-01T08:32:35;18.80;;;4.70;;
47772;SDS011;33534;51.028;13.716;2023-02-01T08:35:02;9.85;;;3.97;;
47772;SDS011;33534;51.028;13.716;2023-02-01T08:37:28;19.73;;;4.63;;
47772;SDS011;33534;51.028;13.716;2023-02-01T08:39:54;20.33;;;4.38;;
47772;SDS011;33534;51.028;13.716;2023-02-01T08:42:20;19.45;;;4.78;;
47772;SDS011;33534;51.028;13.716;2023-02-01T08:45:05;17.83;;;3.75;;
47772;SDS011;33534;51.028;13.716;2023-02-01T08:47:33;15.07;;;4.10;;
47772;SDS011;33534;51.028;13.716;2023-02-01T08:49:59;16.25;;;4.95;;
47772;SDS011;33534;51.028;13.716;2023-02-01T08:52:25;10.20;;;3.53;;
47772;SDS011;33534;51.028;13.716;2023-02-01T08:54:51;13.88;;;3.72;;
47772;SDS011;33534;51.028;13.716;2023-02-01T08:57:17;16.42;;;2.92;;
47772;SDS011;33534;51.028;13.716;2023-02-01T08:59:43;17.48;;;3.35;;
47772;SDS011;33534;51.028;13.716;2023-02-01T09:02:11;19.52;;;3.75;;
47772;SDS011;33534;51.028;13.716;2023-02-01T09:04:38;9.32;;;2.80;;
47772;SDS011;33534;51.028;13.716;2023-02-01T09:07:04;11.43;;;3.13;;
47772;SDS011;33534;51.028;13.716;2023-02-01T09:09:30;7.60;;;2.60;;
47772;SDS011;33534;51.028;13.716;2023-02-01T09:11:56;12.13;;;3.42;;
47772;SDS011;33534;51.028;13.716;2023-02-01T09:14:22;13.23;;;2.83;;
47772;SDS011;33534;51.028;13.716;2023-02-01T09:16:48;11.32;;;3.25;;
47772;SDS011;33534;51.028;13.716;2023-02-01T09:19:14;15.32;;;3.35;;
47772;SDS011;33534;51.028;13.716;2023-02-01T09:21:40;10.85;;;3.55;;
47772;SDS011;33534;51.028;13.716;2023-02-01T09:24:06;19.20;;;3.70;;
47772;SDS011;33534;51.028;13.716;2023-02-01T09:26:32;12.38;;;3.10;;
47772;SDS011;33534;51.028;13.716;2023-02-01T09:28:59;10.13;;;3.95;;
47772;SDS011;33534;51.028;13.716;2023-02-01T09:31:25;14.43;;;3.40;;
47772;SDS011;33534;51.028;13.716;2023-02-01T09:33:51;15.50;;;3.50;;
47772;SDS011;33534;51.028;13.716;2023-02-01T09:36:17;13.80;;;3.63;;
47772;SDS011;33534;51.028;13.716;2023-02-01T09:38:44;16.90;;;3.70;;
47772;SDS011;33534;51.028;13.716;2023-02-01T09:41:30;13.88;;;4.13;;
47772;SDS011;33534;51.028;13.716;2023-02-01T09:44:00;13.00;;;3.88;;
47772;SDS011;33534;51.028;13.716;2023-02-01T09:46:28;15.60;;;3.45;;
47772;SDS011;33534;51.028;13.716;2023-02-01T09:48:56;15.45;;;3.53;;
47772;SDS011;33534;51.028;13.716;2023-02-01T09:51:25;14.40;;;3.95;;
47772;SDS011;33534;51.028;13.716;2023-02-01T09:56:25;18.38;;;4.10;;
47772;SDS011;33534;51.028;13.716;2023-02-01T09:59:01;13.15;;;4.28;;
47772;SDS011;33534;51.028;13.716;2023-02-01T10:01:29;20.85;;;4.95;;
47772;SDS011;33534;51.028;13.716;2023-02-01T10:04:04;19.30;;;4.45;;
47772;SDS011;33534;51.028;13.716;2023-02-01T10:06:52;15.88;;;4.90;;
47772;SDS011;33534;51.028;13.716;2023-02-01T10:26:46;10.63;;;3.95;;
47772;SDS011;33534;51.028;13.716;2023-02-01T10:29:18;15.25;;;4.93;;
47772;SDS011;33534;51.028;13.716;2023-02-01T10:31:45;13.70;;;5.05;;
47772;SDS011;33534;51.028;13.716;2023-02-01T10:34:25;10.15;;;4.60;;
47772;SDS011;33534;51.028;13.716;2023-02-01T10:36:53;14.45;;;4.45;;
47772;SDS011;33534;51.028;13.716;2023-02-01T10:39:20;14.32;;;4.20;;
47772;SDS011;33534;51.028;13.716;2023-02-01T10:41:46;16.35;;;4.15;;
47772;SDS011;33534;51.028;13.716;2023-02-01T10:44:14;16.48;;;4.95;;
47772;SDS011;33534;51.028;13.716;2023-02-01T10:46:40;21.10;;;5.32;;
47772;SDS011;33534;51.028;13.716;2023-02-01T10:49:15;12.93;;;4.05;;
47772;SDS011;33534;51.028;13.716;2023-02-01T10:51:47;12.65;;;4.30;;
47772;SDS011;33534;51.028;13.716;2023-02-01T10:54:20;11.95;;;4.35;;
47772;SDS011;33534;51.028;13.716;2023-02-01T10:56:47;14.02;;;4.63;;
47772;SDS011;33534;51.028;13.716;2023-02-01T10:59:16;13.07;;;4.18;;
47772;SDS011;33534;51.028;13.716;2023-02-01T11:01:43;18.08;;;5.18;;
47772;SDS011;33534;51.028;13.716;2023-02-01T11:04:16;14.77;;;4.78;;
47772;SDS011;33534;51.028;13.716;2023-02-01T11:06:45;17.00;;;4.05;;
47772;SDS011;33534;51.028;13.716;2023-02-01T11:14:20;11.25;;;4.05;;
47772;SDS011;33534;51.028;13.716;2023-02-01T11:16:55;13.18;;;3.90;;
47772;SDS011;33534;51.028;13.716;2023-02-01T11:19:23;16.20;;;4.32;;
47772;SDS011;33534;51.028;13.716;2023-02-01T11:21:50;12.10;;;3.47;;
47772;SDS011;33534;51.028;13.716;2023-02-01T11:24:31;15.68;;;4.30;;
47772;SDS011;33534;51.028;13.716;2023-02-01T11:26:59;11.70;;;3.90;;
47772;SDS011;33534;51.028;13.716;2023-02-01T11:29:25;15.38;;;4.10;;
47772;SDS011;33534;51.028;13.716;2023-02-01T11:31:57;22.27;;;4.38;;
47772;SDS011;33534;51.028;13.716;2023-02-01T11:34:25;13.45;;;3.97;;
47772;SDS011;33534;51.028;13.716;2023-02-01T11:36:52;13.40;;;3.10;;
47772;SDS011;33534;51.028;13.716;2023-02-01T11:39:30;16.77;;;3.47;;
47772;SDS011;33534;51.028;13.716;2023-02-01T11:44:42;12.38;;;3.03;;
47772;SDS011;33534;51.028;13.716;2023-02-01T11:47:29;15.03;;;3.73;;
47772;SDS011;33534;51.028;13.716;2023-02-01T11:49:57;14.05;;;3.53;;
47772;SDS011;33534;51.028;13.716;2023-02-01T12:05:28;12.63;;;2.72;;
47772;SDS011;33534;51.028;13.716;2023-02-01T12:13:21;12.40;;;2.85;;
47772;SDS011;33534;51.028;13.716;2023-02-01T12:21:39;8.60;;;2.65;;
47772;SDS011;33534;51.028;13.716;2023-02-01T12:24:15;13.38;;;3.25;;
47772;SDS011;33534;51.028;13.716;2023-02-01T12:27:32;10.20;;;2.92;;
47772;SDS011;33534;51.028;13.716;2023-02-01T12:32:21;6.60;;;1.98;;
47772;SDS011;33534;51.028;13.716;2023-02-01T12:37:27;10.13;;;2.70;;
47772;SDS011;33534;51.028;13.716;2023-02-01T12:50:43;11.73;;;3.47;;
47772;SDS011;33534;51.028;13.716;2023-02-01T12:55:57;10.98;;;2.70;;
47772;SDS011;33534;51.028;13.716;2023-02-01T12:58:38;9.80;;;3.35;;
47772;SDS011;33534;51.028;13.716;2023-02-01T13:01:06;14.07;;;3.47;;
47772;SDS011;33534;51.028;13.716;2023-02-01T13:06:28;13.30;;;2.72;;
47772;SDS011;33534;51.028;13.716;2023-02-01T13:09:01;10.63;;;3.50;;
47772;SDS011;33534;51.028;13.716;2023-02-01T13:11:39;12.77;;;3.42;;
47772;SDS011;33534;51.028;13.716;2023-02-01T13:16:52;11.48;;;2.70;;
47772;SDS011;33534;51.028;13.716;2023-02-01T13:19:21;9.30;;;3.05;;
47772;SDS011;33534;51.028;13.716;2023-02-01T13:21:50;15.35;;;3.38;;
47772;SDS011;33534;51.028;13.716;2023-02-01T13:24:24;12.80;;;2.75;;
47772;SDS011;33534;51.028;13.716;2023-02-01T13:26:53;11.68;;;2.85;;
47772;SDS011;33534;51.028;13.716;2023-02-01T13:29:20;7.38;;;2.38;;
47772;SDS011;33534;51.028;13.716;2023-02-01T13:31:55;13.57;;;3.40;;
47772;SDS011;33534;51.028;13.716;2023-02-01T13:42:47;10.82;;;2.85;;
47772;SDS011;33534;51.028;13.716;2023-02-01T13:45:15;10.43;;;2.70;;
47772;SDS011;33534;51.028;13.716;2023-02-01T13:47:43;9.57;;;2.40;;
47772;SDS011;33534;51.028;13.716;2023-02-01T13:52:43;11.57;;;3.17;;
47772;SDS011;33534;51.028;13.716;2023-02-01T13:57:40;8.00;;;2.60;;
47772;SDS011;33534;51.028;13.716;2023-02-01T14:02:49;14.77;;;2.78;;
47772;SDS011;33534;51.028;13.716;2023-02-01T14:10:49;9.45;;;2.83;;
47772;SDS011;33534;51.028;13.716;2023-02-01T14:26:07;13.13;;;3.03;;
47772;SDS011;33534;51.028;13.716;2023-02-01T14:28:35;7.57;;;2.65;;
47772;SDS011;33534;51.028;13.716;2023-02-01T14:31:02;8.65;;;2.72;;
47772;SDS011;33534;51.028;13.716;2023-02-01T14:33:40;10.38;;;2.70;;
47772;SDS011;33534;51.028;13.716;2023-02-01T14:36:08;11.32;;;2.53;;
47772;SDS011;33534;51.028;13.716;2023-02-01T14:38:36;6.82;;;2.17;;
47772;SDS011;33534;51.028;13.716;2023-02-01T14:43:51;7.60;;;2.35;;
47772;SDS011;33534;51.028;13.716;2023-02-01T14:49:21;14.80;;;3.05;;
47772;SDS011;33534;51.028;13.716;2023-02-01T14:51:48;6.32;;;2.40;;
47772;SDS011;33534;51.028;13.716;2023-02-01T14:54:14;7.68;;;2.65;;
47772;SDS011;33534;51.028;13.716;2023-02-01T14:56:40;11.00;;;3.17;;
47772;SDS011;33534;51.028;13.716;2023-02-01T14:59:08;12.75;;;3.25;;
47772;SDS011;33534;51.028;13.716;2023-02-01T15:01:35;10.60;;;2.63;;
47772;SDS011;33534;51.028;13.716;2023-02-01T15:06:39;10.20;;;2.53;;
47772;SDS011;33534;51.028;13.716;2023-02-01T15:09:10;9.77;;;3.20;;
47772;SDS011;33534;51.028;13.716;2023-02-01T15:11:53;10.02;;;2.50;;
47772;SDS011;33534;51.028;13.716;2023-02-01T15:14:19;14.43;;;3.45;;
47772;SDS011;33534;51.028;13.716;2023-02-01T15:16:45;11.70;;;2.72;;
47772;SDS011;33534;51.028;13.716;2023-02-01T15:19:18;16.75;;;4.00;;
47772;SDS011;33534;51.028;13.716;2023-02-01T15:21:45;13.40;;;3.45;;
47772;SDS011;33534;51.028;13.716;2023-02-01T15:24:19;9.02;;;2.80;;
47772;SDS011;33534;51.028;13.716;2023-02-01T15:26:45;8.98;;;3.10;;
47772;SDS011;33534;51.028;13.716;2023-02-01T15:29:12;11.73;;;3.40;;
47772;SDS011;33534;51.028;13.716;2023-02-01T15:31:43;9.98;;;3.40;;
47772;SDS011;33534;51.028;13.716;2023-02-01T15:34:09;12.60;;;3.33;;
47772;SDS011;33534;51.028;13.716;2023-02-01T15:36:35;7.95;;;2.70;;
47772;SDS011;33534;51.028;13.716;2023-02-01T15:39:21;21.92;;;5.18;;
47772;SDS011;33534;51.028;13.716;2023-02-01T15:41:54;10.93;;;3.50;;
47772;SDS011;33534;51.028;13.716;2023-02-01T15:44:31;13.05;;;3.10;;
47772;SDS011;33534;51.028;13.716;2023-02-01T15:46:58;16.67;;;3.92;;
47772;SDS011;33534;51.028;13.716;2023-02-01T15:49:26;11.48;;;3.75;;
47772;SDS011;33534;51.028;13.716;2023-02-01T15:51:52;7.82;;;3.25;;
47772;SDS011;33534;51.028;13.716;2023-02-01T15:54:22;14.23;;;2.95;;
47772;SDS011;33534;51.028;13.716;2023-02-01T15:56:53;11.48;;;3.38;;
47772;SDS011;33534;51.028;13.716;2023-02-01T15:59:24;7.75;;;2.92;;
47772;SDS011;33534;51.028;13.716;2023-02-01T16:01:50;10.13;;;2.83;;
47772;SDS011;33534;51.028;13.716;2023-02-01T16:04:24;12.93;;;3.95;;
47772;SDS011;33534;51.028;13.716;2023-02-01T16:06:55;10.77;;;3.25;;
47772;SDS011;33534;51.028;13.716;2023-02-01T16:09:32;10.90;;;2.88;;
47772;SDS011;33534;51.028;13.716;2023-02-01T16:12:01;6.57;;;2.78;;
47772;SDS011;33534;51.028;13.716;2023-02-01T16:14:27;11.43;;;3.78;;
47772;SDS011;33534;51.028;13.716;2023-02-01T16:16:56;11.88;;;3.40;;
47772;SDS011;33534;51.028;13.716;2023-02-01T16:19:22;10.27;;;3.53;;
47772;SDS011;33534;51.028;13.716;2023-02-01T16:21:52;9.68;;;4.40;;
47772;SDS011;33534;51.028;13.716;2023-02-01T16:24:19;10.68;;;4.28;;
47772;SDS011;33534;51.028;13.716;2023-02-01T16:26:50;11.73;;;4.38;;
47772;SDS011;33534;51.028;13.716;2023-02-01T16:29:16;14.10;;;4.28;;
47772;SDS011;33534;51.028;13.716;2023-02-01T16:31:42;12.00;;;4.32;;
47772;SDS011;33534;51.028;13.716;2023-02-01T16:34:15;11.63;;;4.72;;
47772;SDS011;33534;51.028;13.716;2023-02-01T16:36:42;13.80;;;4.53;;
47772;SDS011;33534;51.028;13.716;2023-02-01T16:39:10;12.57;;;4.72;;
47772;SDS011;33534;51.028;13.716;2023-02-01T16:41:37;15.13;;;4.22;;
47772;SDS011;33534;51.028;13.716;2023-02-01T16:44:04;11.25;;;5.53;;
47772;SDS011;33534;51.028;13.716;2023-02-01T16:46:32;13.18;;;4.80;;
47772;SDS011;33534;51.028;13.716;2023-02-01T16:48:59;14.32;;;5.53;;
47772;SDS011;33534;51.028;13.716;2023-02-01T16:51:26;14.38;;;5.50;;
47772;SDS011;33534;51.028;13.716;2023-02-01T16:53:54;14.15;;;5.43;;
47772;SDS011;33534;51.028;13.716;2023-02-01T16:56:27;11.82;;;4.90;;
47772;SDS011;33534;51.028;13.716;2023-02-01T16:58:54;14.85;;;5.40;;
47772;SDS011;33534;51.028;13.716;2023-02-01T17:01:20;13.57;;;5.43;;
47772;SDS011;33534;51.028;13.716;2023-02-01T17:03:46;17.80;;;5.68;;
47772;SDS011;33534;51.028;13.716;2023-02-01T17:06:13;15.85;;;5.88;;
47772;SDS011;33534;51.028;13.716;2023-02-01T17:08:41;20.40;;;5.80;;
47772;SDS011;33534;51.028;13.716;2023-02-01T17:11:08;13.90;;;5.68;;